sensor_id;sensor_type;location;lat;lon;timestamp;P1;durP1;ratioP1;P2;durP2;ratioP2
67597;SDS011;62026;39.230;9.122;2023-03-02T00:01:55;3.85;;;0.90;;
67597;SDS011;62026;39.230;9.122;2023-03-02T00:04:49;1.42;;;0.60;;
67597;SDS011;62026;39.230;9.122;2023-03-02T00:07:21;1.83;;;0.70;;
67597;SDS011;62026;39.230;9.122;2023-03-02T00:09:56;1.77;;;0.55;;
67597;SDS011;62026;39.230;9.122;2023-03-02T00:12:23;1.92;;;0.88;;
67597;SDS011;62026;39.230;9.122;2023-03-02T00:14:53;0.95;;;0.40;;
67597;SDS011;62026;39.230;9.122;2023-03-02T00:17:19;1.63;;;0.43;;
67597;SDS011;62026;39.230;9.122;2023-03-02T00:19:55;1.42;;;0.55;;
67597;SDS011;62026;39.230;9.122;2023-03-02T00:22:30;1.58;;;0.60;;
67597;SDS011;62026;39.230;9.122;2023-03-02T00:24:56;1.60;;;0.50;;
67597;SDS011;62026;39.230;9.122;2023-03-02T00:27:22;1.73;;;0.45;;
67597;SDS011;62026;39.230;9.122;2023-03-02T00:29:48;5.45;;;0.88;;
67597;SDS011;62026;39.230;9.122;2023-03-02T00:32:18;1.17;;;0.43;;
67597;SDS011;62026;39.230;9.122;2023-03-02T00:34:45;2.28;;;0.43;;
67597;SDS011;62026;39.230;9.122;2023-03-02T00:37:12;1.20;;;0.50;;
67597;SDS011;62026;39.230;9.122;2023-03-02T00:39:38;5.22;;;0.68;;
67597;SDS011;62026;39.230;9.122;2023-03-02T00:42:04;1.52;;;0.50;;
67597;SDS011;62026;39.230;9.122;2023-03-02T00:44:30;2.53;;;0.75;;
67597;SDS011;62026;39.230;9.122;2023-03-02T00:46:56;6.60;;;0.88;;
67597;SDS011;62026;39.230;9.122;2023-03-02T00:49:23;3.80;;;0.75;;
67597;SDS011;62026;39.230;9.122;2023-03-02T00:51:49;2.42;;;0.40;;
67597;SDS011;62026;39.230;9.122;2023-03-02T00:54:15;2.05;;;0.60;;
67597;SDS011;62026;39.230;9.122;2023-03-02T00:56:41;4.13;;;0.80;;
67597;SDS011;62026;39.230;9.122;2023-03-02T00:59:08;5.18;;;0.73;;
67597;SDS011;62026;39.230;9.122;2023-03-02T01:02:12;2.28;;;0.65;;
67597;SDS011;62026;39.230;9.122;2023-03-02T01:04:39;2.83;;;0.70;;
67597;SDS011;62026;39.230;9.122;2023-03-02T01:07:11;3.88;;;0.70;;
67597;SDS011;62026;39.230;9.122;2023-03-02T01:09:41;2.17;;;0.60;;
67597;SDS011;62026;39.230;9.122;2023-03-02T01:12:09;3.85;;;0.80;;
67597;SDS011;62026;39.230;9.122;2023-03-02T01:14:41;3.00;;;0.73;;
67597;SDS011;62026;39.230;9.122;2023-03-02T01:17:11;5.20;;;0.80;;
67597;SDS011;62026;39.230;9.122;2023-03-02T01:19:39;2.25;;;0.77;;
67597;SDS011;62026;39.230;9.122;2023-03-02T01:22:06;2.28;;;0.80;;
67597;SDS011;62026;39.230;9.122;2023-03-02T01:24:32;2.20;;;0.60;;
67597;SDS011;62026;39.230;9.122;2023-03-02T01:26:58;4.57;;;0.60;;
67597;SDS011;62026;39.230;9.122;2023-03-02T01:29:25;1.80;;;0.75;;
67597;SDS011;62026;39.230;9.122;2023-03-02T01:31:51;1.27;;;0.50;;
67597;SDS011;62026;39.230;9.122;2023-03-02T01:34:17;3.28;;;0.73;;
67597;SDS011;62026;39.230;9.122;2023-03-02T01:36:43;3.25;;;0.85;;
67597;SDS011;62026;39.230;9.122;2023-03-02T01:39:10;2.13;;;0.55;;
67597;SDS011;62026;39.230;9.122;2023-03-02T01:41:42;2.75;;;0.65;;
67597;SDS011;62026;39.230;9.122;2023-03-02T01:47:20;2.83;;;0.60;;
67597;SDS011;62026;39.230;9.122;2023-03-02T01:50:18;1.88;;;0.52;;
67597;SDS011;62026;39.230;9.122;2023-03-02T01:52:53;2.13;;;0.50;;
67597;SDS011;62026;39.230;9.122;2023-03-02T01:55:22;0.68;;;0.40;;
67597;SDS011;62026;39.230;9.122;2023-03-02T01:57:53;3.95;;;0.43;;
67597;SDS011;62026;39.230;9.122;2023-03-02T02:00:24;6.43;;;0.88;;
67597;SDS011;62026;39.230;9.122;2023-03-02T02:02:58;2.83;;;0.75;;
67597;SDS011;62026;39.230;9.122;2023-03-02T02:05:35;4.30;;;0.80;;
67597;SDS011;62026;39.230;9.122;2023-03-02T02:08:05;2.47;;;0.70;;
67597;SDS011;62026;39.230;9.122;2023-03-02T02:10:32;4.55;;;0.73;;
67597;SDS011;62026;39.230;9.122;2023-03-02T02:13:00;3.78;;;0.60;;
67597;SDS011;62026;39.230;9.122;2023-03-02T02:15:26;2.47;;;0.52;;
67597;SDS011;62026;39.230;9.122;2023-03-02T02:17:52;2.50;;;0.60;;
67597;SDS011;62026;39.230;9.122;2023-03-02T02:28:47;3.22;;;0.75;;
67597;SDS011;62026;39.230;9.122;2023-03-02T02:31:44;2.45;;;0.63;;
67597;SDS011;62026;39.230;9.122;2023-03-02T02:34:40;5.03;;;0.68;;
67597;SDS011;62026;39.230;9.122;2023-03-02T02:37:13;3.75;;;0.70;;
67597;SDS011;62026;39.230;9.122;2023-03-02T02:39:55;3.80;;;0.60;;
67597;SDS011;62026;39.230;9.122;2023-03-02T02:42:24;1.63;;;0.60;;
67597;SDS011;62026;39.230;9.122;2023-03-02T02:44:58;4.82;;;0.60;;
67597;SDS011;62026;39.230;9.122;2023-03-02T02:47:41;0.85;;;0.40;;
67597;SDS011;62026;39.230;9.122;2023-03-02T02:50:09;2.78;;;0.60;;
67597;SDS011;62026;39.230;9.122;2023-03-02T02:52:50;3.25;;;0.50;;
67597;SDS011;62026;39.230;9.122;2023-03-02T02:55:29;1.80;;;0.57;;
67597;SDS011;62026;39.230;9.122;2023-03-02T02:57:58;1.38;;;0.50;;
67597;SDS011;62026;39.230;9.122;2023-03-02T03:00:34;3.00;;;0.45;;
67597;SDS011;62026;39.230;9.122;2023-03-02T03:03:05;3.78;;;0.60;;
67597;SDS011;62026;39.230;9.122;2023-03-02T03:06:06;1.77;;;0.70;;
67597;SDS011;62026;39.230;9.122;2023-03-02T03:11:17;3.95;;;0.52;;
67597;SDS011;62026;39.230;9.122;2023-03-02T03:14:05;3.67;;;0.68;;
67597;SDS011;62026;39.230;9.122;2023-03-02T03:16:36;2.67;;;0.47;;
67597;SDS011;62026;39.230;9.122;2023-03-02T03:19:16;3.45;;;0.50;;
67597;SDS011;62026;39.230;9.122;2023-03-02T03:21:53;1.45;;;0.40;;
67597;SDS011;62026;39.230;9.122;2023-03-02T03:24:24;2.90;;;0.52;;
67597;SDS011;62026;39.230;9.122;2023-03-02T03:26:53;3.08;;;0.60;;
67597;SDS011;62026;39.230;9.122;2023-03-02T03:29:21;1.45;;;0.40;;
67597;SDS011;62026;39.230;9.122;2023-03-02T03:31:51;2.55;;;0.50;;
67597;SDS011;62026;39.230;9.122;2023-03-02T03:34:21;1.55;;;0.50;;
67597;SDS011;62026;39.230;9.122;2023-03-02T03:36:49;1.00;;;0.40;;
67597;SDS011;62026;39.230;9.122;2023-03-02T03:39:16;6.63;;;0.57;;
67597;SDS011;62026;39.230;9.122;2023-03-02T03:41:44;1.15;;;0.50;;
67597;SDS011;62026;39.230;9.122;2023-03-02T03:44:10;1.50;;;0.45;;
67597;SDS011;62026;39.230;9.122;2023-03-02T03:46:40;3.65;;;0.70;;
67597;SDS011;62026;39.230;9.122;2023-03-02T03:49:06;2.97;;;0.60;;
67597;SDS011;62026;39.230;9.122;2023-03-02T03:51:33;2.83;;;0.73;;
67597;SDS011;62026;39.230;9.122;2023-03-02T03:54:00;1.33;;;0.40;;
67597;SDS011;62026;39.230;9.122;2023-03-02T03:56:37;1.75;;;0.52;;
67597;SDS011;62026;39.230;9.122;2023-03-02T03:59:10;1.20;;;0.35;;
67597;SDS011;62026;39.230;9.122;2023-03-02T04:01:51;1.67;;;0.60;;
67597;SDS011;62026;39.230;9.122;2023-03-02T04:04:28;2.05;;;0.52;;
67597;SDS011;62026;39.230;9.122;2023-03-02T04:07:00;2.13;;;0.50;;
67597;SDS011;62026;39.230;9.122;2023-03-02T04:09:27;1.65;;;0.45;;
67597;SDS011;62026;39.230;9.122;2023-03-02T04:11:56;1.08;;;0.40;;
67597;SDS011;62026;39.230;9.122;2023-03-02T04:14:23;1.65;;;0.40;;
67597;SDS011;62026;39.230;9.122;2023-03-02T04:16:51;1.10;;;0.30;;
67597;SDS011;62026;39.230;9.122;2023-03-02T04:19:19;1.77;;;0.43;;
67597;SDS011;62026;39.230;9.122;2023-03-02T04:21:50;1.08;;;0.40;;
67597;SDS011;62026;39.230;9.122;2023-03-02T04:24:20;0.40;;;0.30;;
67597;SDS011;62026;39.230;9.122;2023-03-02T04:26:48;2.83;;;0.40;;
67597;SDS011;62026;39.230;9.122;2023-03-02T04:29:16;1.58;;;0.30;;
67597;SDS011;62026;39.230;9.122;2023-03-02T04:31:42;1.90;;;0.40;;
67597;SDS011;62026;39.230;9.122;2023-03-02T04:34:10;0.55;;;0.40;;
67597;SDS011;62026;39.230;9.122;2023-03-02T04:36:39;1.60;;;0.50;;
67597;SDS011;62026;39.230;9.122;2023-03-02T04:39:09;1.25;;;0.40;;
67597;SDS011;62026;39.230;9.122;2023-03-02T04:41:38;0.75;;;0.30;;
67597;SDS011;62026;39.230;9.122;2023-03-02T04:44:04;0.57;;;0.32;;
67597;SDS011;62026;39.230;9.122;2023-03-02T04:46:30;0.88;;;0.30;;
67597;SDS011;62026;39.230;9.122;2023-03-02T04:48:58;0.25;;;0.25;;
67597;SDS011;62026;39.230;9.122;2023-03-02T04:51:26;1.10;;;0.30;;
67597;SDS011;62026;39.230;9.122;2023-03-02T04:53:57;0.80;;;0.35;;
67597;SDS011;62026;39.230;9.122;2023-03-02T04:56:27;0.20;;;0.20;;
67597;SDS011;62026;39.230;9.122;2023-03-02T04:58:53;0.45;;;0.30;;
67597;SDS011;62026;39.230;9.122;2023-03-02T05:01:20;2.38;;;0.25;;
67597;SDS011;62026;39.230;9.122;2023-03-02T05:03:46;1.27;;;0.30;;
67597;SDS011;62026;39.230;9.122;2023-03-02T05:06:13;1.25;;;0.40;;
67597;SDS011;62026;39.230;9.122;2023-03-02T05:08:40;2.38;;;0.60;;
67597;SDS011;62026;39.230;9.122;2023-03-02T05:11:06;0.70;;;0.32;;
67597;SDS011;62026;39.230;9.122;2023-03-02T05:13:33;1.92;;;0.30;;
67597;SDS011;62026;39.230;9.122;2023-03-02T05:16:00;1.33;;;0.30;;
67597;SDS011;62026;39.230;9.122;2023-03-02T05:18:26;1.27;;;0.43;;
67597;SDS011;62026;39.230;9.122;2023-03-02T05:20:52;2.38;;;0.60;;
67597;SDS011;62026;39.230;9.122;2023-03-02T05:23:19;2.05;;;0.47;;
67597;SDS011;62026;39.230;9.122;2023-03-02T05:25:53;1.95;;;0.40;;
67597;SDS011;62026;39.230;9.122;2023-03-02T05:28:20;1.58;;;0.50;;
67597;SDS011;62026;39.230;9.122;2023-03-02T05:30:49;1.35;;;0.40;;
67597;SDS011;62026;39.230;9.122;2023-03-02T05:33:16;0.90;;;0.30;;
67597;SDS011;62026;39.230;9.122;2023-03-02T05:35:44;1.10;;;0.38;;
67597;SDS011;62026;39.230;9.122;2023-03-02T05:38:10;0.98;;;0.30;;
67597;SDS011;62026;39.230;9.122;2023-03-02T05:40:36;0.73;;;0.40;;
67597;SDS011;62026;39.230;9.122;2023-03-02T05:43:04;0.40;;;0.30;;
67597;SDS011;62026;39.230;9.122;2023-03-02T05:45:31;1.65;;;0.43;;
67597;SDS011;62026;39.230;9.122;2023-03-02T05:48:00;1.67;;;0.40;;
67597;SDS011;62026;39.230;9.122;2023-03-02T05:50:27;0.47;;;0.40;;
67597;SDS011;62026;39.230;9.122;2023-03-02T05:52:53;1.27;;;0.50;;
67597;SDS011;62026;39.230;9.122;2023-03-02T05:55:19;1.02;;;0.43;;
67597;SDS011;62026;39.230;9.122;2023-03-02T05:57:45;0.65;;;0.47;;
67597;SDS011;62026;39.230;9.122;2023-03-02T06:00:14;1.23;;;0.55;;
67597;SDS011;62026;39.230;9.122;2023-03-02T06:02:42;1.95;;;0.82;;
67597;SDS011;62026;39.230;9.122;2023-03-02T06:05:10;1.40;;;0.63;;
67597;SDS011;62026;39.230;9.122;2023-03-02T06:07:39;0.80;;;0.40;;
67597;SDS011;62026;39.230;9.122;2023-03-02T06:10:05;0.82;;;0.30;;
67597;SDS011;62026;39.230;9.122;2023-03-02T06:12:34;2.60;;;0.68;;
67597;SDS011;62026;39.230;9.122;2023-03-02T06:15:01;2.28;;;0.68;;
67597;SDS011;62026;39.230;9.122;2023-03-02T06:17:28;4.25;;;0.70;;
67597;SDS011;62026;39.230;9.122;2023-03-02T06:19:54;0.93;;;0.50;;
67597;SDS011;62026;39.230;9.122;2023-03-02T06:22:20;3.13;;;0.60;;
67597;SDS011;62026;39.230;9.122;2023-03-02T06:24:46;1.25;;;0.50;;
67597;SDS011;62026;39.230;9.122;2023-03-02T06:27:12;4.65;;;0.65;;
67597;SDS011;62026;39.230;9.122;2023-03-02T06:29:39;1.20;;;0.73;;
67597;SDS011;62026;39.230;9.122;2023-03-02T06:32:05;1.90;;;0.63;;
67597;SDS011;62026;39.230;9.122;2023-03-02T06:34:31;2.50;;;1.00;;
67597;SDS011;62026;39.230;9.122;2023-03-02T06:36:58;2.15;;;0.70;;
67597;SDS011;62026;39.230;9.122;2023-03-02T06:39:24;1.80;;;0.50;;
67597;SDS011;62026;39.230;9.122;2023-03-02T06:41:50;1.48;;;1.00;;
67597;SDS011;62026;39.230;9.122;2023-03-02T06:44:16;2.65;;;0.75;;
67597;SDS011;62026;39.230;9.122;2023-03-02T06:46:43;2.85;;;0.70;;
67597;SDS011;62026;39.230;9.122;2023-03-02T06:49:09;1.33;;;0.50;;
67597;SDS011;62026;39.230;9.122;2023-03-02T06:51:36;1.33;;;0.60;;
67597;SDS011;62026;39.230;9.122;2023-03-02T06:54:03;2.92;;;1.02;;
67597;SDS011;62026;39.230;9.122;2023-03-02T06:56:32;4.53;;;1.00;;
67597;SDS011;62026;39.230;9.122;2023-03-02T06:58:59;2.80;;;1.00;;
67597;SDS011;62026;39.230;9.122;2023-03-02T07:01:25;1.15;;;0.80;;
67597;SDS011;62026;39.230;9.122;2023-03-02T07:03:51;2.00;;;1.13;;
67597;SDS011;62026;39.230;9.122;2023-03-02T07:06:17;2.45;;;1.00;;
67597;SDS011;62026;39.230;9.122;2023-03-02T07:08:43;2.10;;;0.90;;
67597;SDS011;62026;39.230;9.122;2023-03-02T07:11:10;2.20;;;0.90;;
67597;SDS011;62026;39.230;9.122;2023-03-02T07:13:37;4.05;;;1.08;;
67597;SDS011;62026;39.230;9.122;2023-03-02T07:16:08;3.42;;;1.00;;
67597;SDS011;62026;39.230;9.122;2023-03-02T07:18:36;2.40;;;0.73;;
67597;SDS011;62026;39.230;9.122;2023-03-02T07:21:03;1.63;;;0.95;;
67597;SDS011;62026;39.230;9.122;2023-03-02T07:23:29;4.18;;;0.70;;
67597;SDS011;62026;39.230;9.122;2023-03-02T07:25:57;2.20;;;0.82;;
67597;SDS011;62026;39.230;9.122;2023-03-02T07:28:23;2.38;;;0.73;;
67597;SDS011;62026;39.230;9.122;2023-03-02T07:30:50;2.47;;;1.10;;
67597;SDS011;62026;39.230;9.122;2023-03-02T07:33:18;1.85;;;0.80;;
67597;SDS011;62026;39.230;9.122;2023-03-02T07:35:45;2.08;;;1.00;;
67597;SDS011;62026;39.230;9.122;2023-03-02T07:38:11;2.15;;;0.90;;
67597;SDS011;62026;39.230;9.122;2023-03-02T07:40:40;3.28;;;0.95;;
67597;SDS011;62026;39.230;9.122;2023-03-02T07:43:07;3.10;;;1.23;;
67597;SDS011;62026;39.230;9.122;2023-03-02T07:45:34;1.88;;;0.60;;
67597;SDS011;62026;39.230;9.122;2023-03-02T07:48:02;1.40;;;0.80;;
67597;SDS011;62026;39.230;9.122;2023-03-02T07:50:28;1.48;;;0.70;;
67597;SDS011;62026;39.230;9.122;2023-03-02T07:52:55;4.90;;;1.02;;
67597;SDS011;62026;39.230;9.122;2023-03-02T07:55:22;1.27;;;0.73;;
67597;SDS011;62026;39.230;9.122;2023-03-02T07:57:48;2.03;;;0.90;;
67597;SDS011;62026;39.230;9.122;2023-03-02T08:00:15;1.55;;;0.70;;
67597;SDS011;62026;39.230;9.122;2023-03-02T08:02:41;0.93;;;0.70;;
67597;SDS011;62026;39.230;9.122;2023-03-02T08:05:08;3.10;;;1.00;;
67597;SDS011;62026;39.230;9.122;2023-03-02T08:07:35;2.92;;;0.77;;
67597;SDS011;62026;39.230;9.122;2023-03-02T08:10:02;2.75;;;0.93;;
67597;SDS011;62026;39.230;9.122;2023-03-02T08:12:29;1.85;;;0.80;;
67597;SDS011;62026;39.230;9.122;2023-03-02T08:14:55;4.88;;;0.82;;
67597;SDS011;62026;39.230;9.122;2023-03-02T08:17:21;2.45;;;1.10;;
67597;SDS011;62026;39.230;9.122;2023-03-02T08:19:47;3.30;;;1.17;;
67597;SDS011;62026;39.230;9.122;2023-03-02T08:22:14;2.75;;;0.93;;
67597;SDS011;62026;39.230;9.122;2023-03-02T08:24:40;2.45;;;0.90;;
67597;SDS011;62026;39.230;9.122;2023-03-02T08:27:07;2.63;;;1.00;;
67597;SDS011;62026;39.230;9.122;2023-03-02T08:29:38;2.78;;;0.82;;
67597;SDS011;62026;39.230;9.122;2023-03-02T08:32:04;1.50;;;0.77;;
67597;SDS011;62026;39.230;9.122;2023-03-02T08:34:30;2.80;;;1.00;;
67597;SDS011;62026;39.230;9.122;2023-03-02T08:36:56;2.85;;;1.40;;
67597;SDS011;62026;39.230;9.122;2023-03-02T08:39:22;4.63;;;1.05;;
67597;SDS011;62026;39.230;9.122;2023-03-02T08:41:51;5.57;;;1.10;;
67597;SDS011;62026;39.230;9.122;2023-03-02T08:44:18;2.97;;;1.15;;
67597;SDS011;62026;39.230;9.122;2023-03-02T08:46:46;2.53;;;1.33;;
67597;SDS011;62026;39.230;9.122;2023-03-02T08:49:14;3.25;;;0.60;;
67597;SDS011;62026;39.230;9.122;2023-03-02T08:51:43;3.55;;;0.80;;
67597;SDS011;62026;39.230;9.122;2023-03-02T08:54:11;1.70;;;0.90;;
67597;SDS011;62026;39.230;9.122;2023-03-02T08:56:37;4.13;;;1.00;;
67597;SDS011;62026;39.230;9.122;2023-03-02T08:59:06;3.05;;;0.90;;
67597;SDS011;62026;39.230;9.122;2023-03-02T09:01:37;4.97;;;0.80;;
67597;SDS011;62026;39.230;9.122;2023-03-02T09:04:05;5.53;;;1.10;;
67597;SDS011;62026;39.230;9.122;2023-03-02T09:06:38;2.08;;;0.82;;
67597;SDS011;62026;39.230;9.122;2023-03-02T09:09:07;2.22;;;0.75;;
67597;SDS011;62026;39.230;9.122;2023-03-02T09:11:35;4.95;;;1.33;;
67597;SDS011;62026;39.230;9.122;2023-03-02T09:14:02;7.47;;;1.10;;
67597;SDS011;62026;39.230;9.122;2023-03-02T09:16:28;3.88;;;1.20;;
67597;SDS011;62026;39.230;9.122;2023-03-02T09:18:54;1.70;;;1.13;;
67597;SDS011;62026;39.230;9.122;2023-03-02T09:21:20;5.88;;;1.38;;
67597;SDS011;62026;39.230;9.122;2023-03-02T09:23:47;4.75;;;1.30;;
67597;SDS011;62026;39.230;9.122;2023-03-02T09:26:18;3.13;;;1.30;;
67597;SDS011;62026;39.230;9.122;2023-03-02T09:28:44;6.35;;;1.58;;
67597;SDS011;62026;39.230;9.122;2023-03-02T09:31:10;4.10;;;1.40;;
67597;SDS011;62026;39.230;9.122;2023-03-02T09:33:37;6.18;;;1.27;;
67597;SDS011;62026;39.230;9.122;2023-03-02T09:36:06;4.75;;;1.52;;
67597;SDS011;62026;39.230;9.122;2023-03-02T09:38:38;3.65;;;1.42;;
67597;SDS011;62026;39.230;9.122;2023-03-02T09:41:24;6.60;;;1.50;;
67597;SDS011;62026;39.230;9.122;2023-03-02T09:51:57;5.40;;;1.33;;
67597;SDS011;62026;39.230;9.122;2023-03-02T09:54:55;3.25;;;1.30;;
67597;SDS011;62026;39.230;9.122;2023-03-02T10:13:57;3.35;;;1.40;;
67597;SDS011;62026;39.230;9.122;2023-03-02T10:16:53;6.28;;;1.38;;
67597;SDS011;62026;39.230;9.122;2023-03-02T10:20:31;5.90;;;1.83;;
67597;SDS011;62026;39.230;9.122;2023-03-02T10:29:27;2.30;;;1.10;;
67597;SDS011;62026;39.230;9.122;2023-03-02T10:32:00;6.85;;;2.42;;
67597;SDS011;62026;39.230;9.122;2023-03-02T10:34:52;4.03;;;1.65;;
67597;SDS011;62026;39.230;9.122;2023-03-02T10:37:20;3.10;;;1.08;;
67597;SDS011;62026;39.230;9.122;2023-03-02T10:39:50;8.75;;;1.20;;
67597;SDS011;62026;39.230;9.122;2023-03-02T10:42:25;2.05;;;1.05;;
67597;SDS011;62026;39.230;9.122;2023-03-02T10:45:26;2.78;;;0.80;;
67597;SDS011;62026;39.230;9.122;2023-03-02T10:50:30;1.13;;;0.70;;
67597;SDS011;62026;39.230;9.122;2023-03-02T10:52:57;2.83;;;0.80;;
67597;SDS011;62026;39.230;9.122;2023-03-02T10:55:24;3.75;;;0.93;;
67597;SDS011;62026;39.230;9.122;2023-03-02T10:58:06;4.55;;;0.90;;
67597;SDS011;62026;39.230;9.122;2023-03-02T11:00:56;3.03;;;0.70;;
67597;SDS011;62026;39.230;9.122;2023-03-02T11:03:30;3.58;;;0.80;;
67597;SDS011;62026;39.230;9.122;2023-03-02T11:05:58;3.30;;;1.00;;
67597;SDS011;62026;39.230;9.122;2023-03-02T11:08:42;3.00;;;1.02;;
67597;SDS011;62026;39.230;9.122;2023-03-02T11:11:21;4.13;;;1.10;;
67597;SDS011;62026;39.230;9.122;2023-03-02T11:13:49;2.13;;;1.10;;
67597;SDS011;62026;39.230;9.122;2023-03-02T11:16:20;4.00;;;1.50;;
67597;SDS011;62026;39.230;9.122;2023-03-02T11:18:59;6.32;;;1.17;;
67597;SDS011;62026;39.230;9.122;2023-03-02T11:24:24;2.88;;;1.10;;
67597;SDS011;62026;39.230;9.122;2023-03-02T11:26:59;3.00;;;1.30;;
67597;SDS011;62026;39.230;9.122;2023-03-02T11:29:46;2.67;;;1.15;;
67597;SDS011;62026;39.230;9.122;2023-03-02T11:35:07;4.50;;;1.45;;
67597;SDS011;62026;39.230;9.122;2023-03-02T11:37:44;3.42;;;0.80;;
67597;SDS011;62026;39.230;9.122;2023-03-02T11:40:32;1.48;;;0.80;;
67597;SDS011;62026;39.230;9.122;2023-03-02T11:43:11;2.20;;;0.80;;
67597;SDS011;62026;39.230;9.122;2023-03-02T11:45:42;1.92;;;1.00;;
67597;SDS011;62026;39.230;9.122;2023-03-02T11:51:13;2.78;;;0.73;;
67597;SDS011;62026;39.230;9.122;2023-03-02T11:54:05;2.10;;;0.80;;
67597;SDS011;62026;39.230;9.122;2023-03-02T11:56:41;2.95;;;0.70;;
67597;SDS011;62026;39.230;9.122;2023-03-02T11:59:16;2.28;;;0.90;;
67597;SDS011;62026;39.230;9.122;2023-03-02T12:01:47;3.60;;;0.77;;
67597;SDS011;62026;39.230;9.122;2023-03-02T12:06:59;2.63;;;0.85;;
67597;SDS011;62026;39.230;9.122;2023-03-02T12:09:40;1.63;;;0.63;;
67597;SDS011;62026;39.230;9.122;2023-03-02T12:18:01;2.65;;;1.25;;
67597;SDS011;62026;39.230;9.122;2023-03-02T12:20:39;2.13;;;1.13;;
67597;SDS011;62026;39.230;9.122;2023-03-02T12:23:08;3.08;;;1.20;;
67597;SDS011;62026;39.230;9.122;2023-03-02T12:25:47;3.08;;;1.30;;
67597;SDS011;62026;39.230;9.122;2023-03-02T12:28:35;2.13;;;1.17;;
67597;SDS011;62026;39.230;9.122;2023-03-02T12:31:05;4.68;;;1.70;;
67597;SDS011;62026;39.230;9.122;2023-03-02T12:33:44;3.70;;;2.23;;
67597;SDS011;62026;39.230;9.122;2023-03-02T12:36:24;4.75;;;2.65;;
67597;SDS011;62026;39.230;9.122;2023-03-02T12:44:39;2.90;;;1.58;;
67597;SDS011;62026;39.230;9.122;2023-03-02T12:47:17;6.18;;;2.33;;
67597;SDS011;62026;39.230;9.122;2023-03-02T12:49:54;5.30;;;2.33;;
67597;SDS011;62026;39.230;9.122;2023-03-02T12:52:35;3.42;;;2.15;;
67597;SDS011;62026;39.230;9.122;2023-03-02T12:55:06;3.50;;;2.17;;
67597;SDS011;62026;39.230;9.122;2023-03-02T12:57:46;4.53;;;2.55;;
67597;SDS011;62026;39.230;9.122;2023-03-02T13:00:18;5.78;;;1.92;;
67597;SDS011;62026;39.230;9.122;2023-03-02T13:05:50;2.55;;;1.33;;
67597;SDS011;62026;39.230;9.122;2023-03-02T13:08:38;2.95;;;1.33;;
67597;SDS011;62026;39.230;9.122;2023-03-02T13:11:10;3.28;;;1.90;;
67597;SDS011;62026;39.230;9.122;2023-03-02T13:13:38;3.42;;;1.50;;
67597;SDS011;62026;39.230;9.122;2023-03-02T13:16:23;5.05;;;1.65;;
67597;SDS011;62026;39.230;9.122;2023-03-02T13:18:56;4.05;;;1.60;;
67597;SDS011;62026;39.230;9.122;2023-03-02T13:21:29;6.15;;;1.70;;
67597;SDS011;62026;39.230;9.122;2023-03-02T13:23:59;4.30;;;1.73;;
67597;SDS011;62026;39.230;9.122;2023-03-02T13:29:05;3.40;;;1.55;;
67597;SDS011;62026;39.230;9.122;2023-03-02T13:31:47;3.22;;;1.30;;
67597;SDS011;62026;39.230;9.122;2023-03-02T13:36:49;1.65;;;1.23;;
67597;SDS011;62026;39.230;9.122;2023-03-02T13:39:18;3.95;;;1.45;;
67597;SDS011;62026;39.230;9.122;2023-03-02T13:41:56;1.42;;;1.05;;
67597;SDS011;62026;39.230;9.122;2023-03-02T13:44:32;3.58;;;1.20;;
67597;SDS011;62026;39.230;9.122;2023-03-02T13:47:00;4.03;;;1.38;;
67597;SDS011;62026;39.230;9.122;2023-03-02T13:49:28;2.72;;;1.23;;
67597;SDS011;62026;39.230;9.122;2023-03-02T13:52:01;3.15;;;1.40;;
67597;SDS011;62026;39.230;9.122;2023-03-02T13:57:11;4.93;;;1.02;;
67597;SDS011;62026;39.230;9.122;2023-03-02T13:59:49;3.63;;;1.20;;
67597;SDS011;62026;39.230;9.122;2023-03-02T14:02:26;2.88;;;1.15;;
67597;SDS011;62026;39.230;9.122;2023-03-02T14:04:54;2.38;;;1.00;;
67597;SDS011;62026;39.230;9.122;2023-03-02T14:07:20;4.55;;;1.10;;
67597;SDS011;62026;39.230;9.122;2023-03-02T14:09:47;1.83;;;0.90;;
67597;SDS011;62026;39.230;9.122;2023-03-02T14:12:21;3.25;;;1.35;;
67597;SDS011;62026;39.230;9.122;2023-03-02T14:14:55;3.28;;;1.30;;
67597;SDS011;62026;39.230;9.122;2023-03-02T14:17:25;5.90;;;1.40;;
67597;SDS011;62026;39.230;9.122;2023-03-02T14:19:52;2.40;;;1.20;;
67597;SDS011;62026;39.230;9.122;2023-03-02T14:22:20;6.70;;;1.60;;
67597;SDS011;62026;39.230;9.122;2023-03-02T14:24:49;5.35;;;1.45;;
67597;SDS011;62026;39.230;9.122;2023-03-02T14:27:15;2.80;;;1.20;;
67597;SDS011;62026;39.230;9.122;2023-03-02T14:29:43;2.70;;;1.40;;
67597;SDS011;62026;39.230;9.122;2023-03-02T14:32:11;5.15;;;1.30;;
67597;SDS011;62026;39.230;9.122;2023-03-02T14:34:39;3.15;;;1.30;;
67597;SDS011;62026;39.230;9.122;2023-03-02T14:37:13;7.75;;;1.48;;
67597;SDS011;62026;39.230;9.122;2023-03-02T14:39:45;10.35;;;1.60;;
67597;SDS011;62026;39.230;9.122;2023-03-02T14:42:17;3.20;;;1.50;;
67597;SDS011;62026;39.230;9.122;2023-03-02T14:44:45;4.93;;;1.20;;
67597;SDS011;62026;39.230;9.122;2023-03-02T14:47:14;1.70;;;1.00;;
67597;SDS011;62026;39.230;9.122;2023-03-02T14:49:43;3.53;;;1.02;;
67597;SDS011;62026;39.230;9.122;2023-03-02T14:54:47;5.95;;;1.50;;
67597;SDS011;62026;39.230;9.122;2023-03-02T14:57:22;4.25;;;1.35;;
67597;SDS011;62026;39.230;9.122;2023-03-02T14:59:53;2.72;;;1.13;;
67597;SDS011;62026;39.230;9.122;2023-03-02T15:02:21;2.50;;;1.23;;
67597;SDS011;62026;39.230;9.122;2023-03-02T15:04:48;5.80;;;1.25;;
67597;SDS011;62026;39.230;9.122;2023-03-02T15:07:17;3.95;;;1.50;;
67597;SDS011;62026;39.230;9.122;2023-03-02T15:09:45;4.00;;;1.13;;
67597;SDS011;62026;39.230;9.122;2023-03-02T15:12:12;8.43;;;1.10;;
67597;SDS011;62026;39.230;9.122;2023-03-02T15:14:38;6.68;;;1.23;;
67597;SDS011;62026;39.230;9.122;2023-03-02T15:17:04;1.40;;;0.80;;
67597;SDS011;62026;39.230;9.122;2023-03-02T15:19:31;3.30;;;1.30;;
67597;SDS011;62026;39.230;9.122;2023-03-02T15:21:57;4.88;;;1.13;;
67597;SDS011;62026;39.230;9.122;2023-03-02T15:24:23;5.30;;;1.38;;
67597;SDS011;62026;39.230;9.122;2023-03-02T15:26:50;3.60;;;1.40;;
67597;SDS011;62026;39.230;9.122;2023-03-02T15:29:18;3.22;;;1.20;;
67597;SDS011;62026;39.230;9.122;2023-03-02T15:31:45;3.72;;;1.40;;
67597;SDS011;62026;39.230;9.122;2023-03-02T15:34:11;3.55;;;1.38;;
67597;SDS011;62026;39.230;9.122;2023-03-02T15:36:38;3.22;;;1.20;;
67597;SDS011;62026;39.230;9.122;2023-03-02T15:39:04;3.30;;;1.38;;
67597;SDS011;62026;39.230;9.122;2023-03-02T15:41:33;2.70;;;1.50;;
67597;SDS011;62026;39.230;9.122;2023-03-02T15:43:59;3.88;;;1.98;;
67597;SDS011;62026;39.230;9.122;2023-03-02T15:46:25;3.92;;;2.03;;
67597;SDS011;62026;39.230;9.122;2023-03-02T15:48:52;4.80;;;1.67;;
67597;SDS011;62026;39.230;9.122;2023-03-02T15:51:18;3.72;;;1.48;;
67597;SDS011;62026;39.230;9.122;2023-03-02T15:53:45;2.42;;;1.45;;
67597;SDS011;62026;39.230;9.122;2023-03-02T15:56:12;2.33;;;1.30;;
67597;SDS011;62026;39.230;9.122;2023-03-02T15:58:49;3.55;;;1.17;;
67597;SDS011;62026;39.230;9.122;2023-03-02T16:01:15;3.47;;;1.10;;
67597;SDS011;62026;39.230;9.122;2023-03-02T16:03:41;4.60;;;1.77;;
67597;SDS011;62026;39.230;9.122;2023-03-02T16:06:09;5.15;;;2.70;;
67597;SDS011;62026;39.230;9.122;2023-03-02T16:08:37;2.80;;;2.10;;
67597;SDS011;62026;39.230;9.122;2023-03-02T16:11:04;5.65;;;1.75;;
67597;SDS011;62026;39.230;9.122;2023-03-02T16:13:32;2.88;;;2.15;;
67597;SDS011;62026;39.230;9.122;2023-03-02T16:15:59;5.03;;;2.40;;
67597;SDS011;62026;39.230;9.122;2023-03-02T16:18:30;8.52;;;2.00;;
67597;SDS011;62026;39.230;9.122;2023-03-02T16:20:57;4.10;;;1.60;;
67597;SDS011;62026;39.230;9.122;2023-03-02T16:23:23;4.05;;;1.70;;
67597;SDS011;62026;39.230;9.122;2023-03-02T16:25:49;5.55;;;1.90;;
67597;SDS011;62026;39.230;9.122;2023-03-02T16:28:16;3.85;;;2.10;;
67597;SDS011;62026;39.230;9.122;2023-03-02T16:30:43;5.50;;;1.80;;
67597;SDS011;62026;39.230;9.122;2023-03-02T16:33:13;3.47;;;1.70;;